sensor_id;sensor_type;location;lat;lon;timestamp;P1;durP1;ratioP1;P2;durP2;ratioP2
9424;SDS011;17139;52.140;11.636;2022-09-09T00:01:37;7.00;;;6.38;;
9424;SDS011;17139;52.140;11.636;2022-09-09T00:04:17;5.78;;;5.47;;
9424;SDS011;17139;52.140;11.636;2022-09-09T00:06:55;5.65;;;5.35;;
9424;SDS011;17139;52.140;11.636;2022-09-09T00:09:29;7.40;;;5.10;;
9424;SDS011;17139;52.140;11.636;2022-09-09T00:11:58;5.60;;;5.20;;
9424;SDS011;17139;52.140;11.636;2022-09-09T00:14:34;4.95;;;4.68;;
9424;SDS011;17139;52.140;11.636;2022-09-09T00:17:08;6.40;;;5.85;;
9424;SDS011;17139;52.140;11.636;2022-09-09T00:19:41;5.20;;;4.93;;
9424;SDS011;17139;52.140;11.636;2022-09-09T00:22:17;8.30;;;7.60;;
9424;SDS011;17139;52.140;11.636;2022-09-09T00:24:46;5.03;;;4.72;;
9424;SDS011;17139;52.140;11.636;2022-09-09T00:27:25;4.70;;;4.40;;
9424;SDS011;17139;52.140;11.636;2022-09-09T00:29:57;4.80;;;4.50;;
9424;SDS011;17139;52.140;11.636;2022-09-09T00:32:28;5.07;;;4.13;;
9424;SDS011;17139;52.140;11.636;2022-09-09T00:35:00;3.75;;;3.45;;
9424;SDS011;17139;52.140;11.636;2022-09-09T00:37:30;4.38;;;4.07;;
9424;SDS011;17139;52.140;11.636;2022-09-09T00:39:59;5.10;;;4.80;;
9424;SDS011;17139;52.140;11.636;2022-09-09T00:42:32;4.25;;;4.05;;
9424;SDS011;17139;52.140;11.636;2022-09-09T00:45:10;5.55;;;5.25;;
9424;SDS011;17139;52.140;11.636;2022-09-09T00:47:50;4.00;;;3.80;;
9424;SDS011;17139;52.140;11.636;2022-09-09T00:50:35;3.83;;;3.72;;
9424;SDS011;17139;52.140;11.636;2022-09-09T00:53:15;3.65;;;3.55;;
9424;SDS011;17139;52.140;11.636;2022-09-09T00:55:53;3.97;;;3.67;;
9424;SDS011;17139;52.140;11.636;2022-09-09T00:58:25;3.83;;;3.63;;
9424;SDS011;17139;52.140;11.636;2022-09-09T01:00:56;4.82;;;3.80;;
9424;SDS011;17139;52.140;11.636;2022-09-09T01:03:33;3.28;;;3.17;;
9424;SDS011;17139;52.140;11.636;2022-09-09T01:06:12;4.05;;;3.75;;
9424;SDS011;17139;52.140;11.636;2022-09-09T01:11:33;5.22;;;4.68;;
9424;SDS011;17139;52.140;11.636;2022-09-09T01:14:13;5.50;;;5.15;;
9424;SDS011;17139;52.140;11.636;2022-09-09T01:16:50;4.45;;;4.15;;
9424;SDS011;17139;52.140;11.636;2022-09-09T01:19:24;4.93;;;3.53;;
9424;SDS011;17139;52.140;11.636;2022-09-09T01:22:01;3.13;;;3.03;;
9424;SDS011;17139;52.140;11.636;2022-09-09T01:24:38;3.25;;;2.90;;
9424;SDS011;17139;52.140;11.636;2022-09-09T01:27:10;5.25;;;4.85;;
9424;SDS011;17139;52.140;11.636;2022-09-09T01:29:40;3.10;;;3.00;;
9424;SDS011;17139;52.140;11.636;2022-09-09T01:35:05;2.78;;;2.58;;
9424;SDS011;17139;52.140;11.636;2022-09-09T01:37:36;2.40;;;2.30;;
9424;SDS011;17139;52.140;11.636;2022-09-09T01:40:03;2.42;;;2.33;;
9424;SDS011;17139;52.140;11.636;2022-09-09T01:42:32;2.75;;;2.33;;
9424;SDS011;17139;52.140;11.636;2022-09-09T01:44:59;3.42;;;2.70;;
9424;SDS011;17139;52.140;11.636;2022-09-09T01:47:26;2.60;;;1.83;;
9424;SDS011;17139;52.140;11.636;2022-09-09T01:49:53;3.58;;;2.95;;
9424;SDS011;17139;52.140;11.636;2022-09-09T01:52:20;2.25;;;2.15;;
9424;SDS011;17139;52.140;11.636;2022-09-09T01:54:48;3.33;;;3.22;;
9424;SDS011;17139;52.140;11.636;2022-09-09T01:57:15;2.90;;;2.55;;
9424;SDS011;17139;52.140;11.636;2022-09-09T01:59:50;2.80;;;2.17;;
9424;SDS011;17139;52.140;11.636;2022-09-09T02:02:28;2.10;;;1.92;;
9424;SDS011;17139;52.140;11.636;2022-09-09T02:05:01;2.80;;;2.08;;
9424;SDS011;17139;52.140;11.636;2022-09-09T02:07:38;2.38;;;2.20;;
9424;SDS011;17139;52.140;11.636;2022-09-09T02:10:09;5.00;;;1.77;;
9424;SDS011;17139;52.140;11.636;2022-09-09T02:12:40;2.80;;;2.60;;
9424;SDS011;17139;52.140;11.636;2022-09-09T02:15:13;2.70;;;1.92;;
9424;SDS011;17139;52.140;11.636;2022-09-09T02:17:46;2.78;;;2.40;;
9424;SDS011;17139;52.140;11.636;2022-09-09T02:20:17;2.53;;;1.65;;
9424;SDS011;17139;52.140;11.636;2022-09-09T02:22:46;1.80;;;1.70;;
9424;SDS011;17139;52.140;11.636;2022-09-09T02:25:17;2.22;;;1.77;;
9424;SDS011;17139;52.140;11.636;2022-09-09T02:27:47;2.13;;;1.90;;
9424;SDS011;17139;52.140;11.636;2022-09-09T02:30:18;2.10;;;1.48;;
9424;SDS011;17139;52.140;11.636;2022-09-09T02:32:47;2.97;;;1.92;;
9424;SDS011;17139;52.140;11.636;2022-09-09T02:35:19;2.78;;;1.80;;
9424;SDS011;17139;52.140;11.636;2022-09-09T02:37:51;1.80;;;1.50;;
9424;SDS011;17139;52.140;11.636;2022-09-09T02:40:21;2.70;;;1.90;;
9424;SDS011;17139;52.140;11.636;2022-09-09T02:42:49;1.70;;;1.70;;
9424;SDS011;17139;52.140;11.636;2022-09-09T02:45:16;2.80;;;1.90;;
9424;SDS011;17139;52.140;11.636;2022-09-09T02:47:50;3.97;;;1.83;;
9424;SDS011;17139;52.140;11.636;2022-09-09T02:50:25;7.95;;;1.90;;
9424;SDS011;17139;52.140;11.636;2022-09-09T02:53:01;1.75;;;1.65;;
9424;SDS011;17139;52.140;11.636;2022-09-09T02:55:37;2.20;;;2.00;;
9424;SDS011;17139;52.140;11.636;2022-09-09T02:58:08;2.22;;;2.00;;
9424;SDS011;17139;52.140;11.636;2022-09-09T03:00:39;3.30;;;2.95;;
9424;SDS011;17139;52.140;11.636;2022-09-09T03:03:06;2.08;;;1.95;;
9424;SDS011;17139;52.140;11.636;2022-09-09T03:05:34;1.88;;;1.73;;
9424;SDS011;17139;52.140;11.636;2022-09-09T03:08:02;3.75;;;1.80;;
9424;SDS011;17139;52.140;11.636;2022-09-09T03:10:30;3.20;;;2.30;;
9424;SDS011;17139;52.140;11.636;2022-09-09T03:12:57;2.15;;;1.30;;
9424;SDS011;17139;52.140;11.636;2022-09-09T03:15:24;1.70;;;1.60;;
9424;SDS011;17139;52.140;11.636;2022-09-09T03:17:55;3.40;;;2.10;;
9424;SDS011;17139;52.140;11.636;2022-09-09T03:20:23;2.10;;;1.90;;
9424;SDS011;17139;52.140;11.636;2022-09-09T03:22:51;2.03;;;1.90;;
9424;SDS011;17139;52.140;11.636;2022-09-09T03:25:18;3.72;;;3.47;;
9424;SDS011;17139;52.140;11.636;2022-09-09T03:27:45;3.00;;;2.63;;
9424;SDS011;17139;52.140;11.636;2022-09-09T03:30:13;4.40;;;4.20;;
9424;SDS011;17139;52.140;11.636;2022-09-09T03:32:40;2.60;;;2.47;;
9424;SDS011;17139;52.140;11.636;2022-09-09T03:35:09;2.50;;;2.38;;
9424;SDS011;17139;52.140;11.636;2022-09-09T03:37:36;3.28;;;2.60;;
9424;SDS011;17139;52.140;11.636;2022-09-09T03:40:04;2.60;;;2.40;;
9424;SDS011;17139;52.140;11.636;2022-09-09T03:42:32;2.45;;;2.33;;
9424;SDS011;17139;52.140;11.636;2022-09-09T03:44:59;3.38;;;3.17;;
9424;SDS011;17139;52.140;11.636;2022-09-09T03:47:25;2.40;;;2.28;;
9424;SDS011;17139;52.140;11.636;2022-09-09T03:49:52;4.00;;;3.40;;
9424;SDS011;17139;52.140;11.636;2022-09-09T03:52:20;5.38;;;2.25;;
9424;SDS011;17139;52.140;11.636;2022-09-09T03:54:50;2.17;;;2.00;;
9424;SDS011;17139;52.140;11.636;2022-09-09T03:57:19;2.58;;;2.38;;
9424;SDS011;17139;52.140;11.636;2022-09-09T03:59:46;2.80;;;2.58;;
9424;SDS011;17139;52.140;11.636;2022-09-09T04:02:13;2.08;;;1.80;;
9424;SDS011;17139;52.140;11.636;2022-09-09T04:04:40;4.15;;;2.17;;
9424;SDS011;17139;52.140;11.636;2022-09-09T04:07:07;2.70;;;2.25;;
9424;SDS011;17139;52.140;11.636;2022-09-09T04:09:35;2.85;;;2.00;;
9424;SDS011;17139;52.140;11.636;2022-09-09T04:12:02;2.90;;;2.60;;
9424;SDS011;17139;52.140;11.636;2022-09-09T04:14:30;2.75;;;2.13;;
9424;SDS011;17139;52.140;11.636;2022-09-09T04:16:57;2.63;;;2.42;;
9424;SDS011;17139;52.140;11.636;2022-09-09T04:19:24;3.58;;;2.70;;
9424;SDS011;17139;52.140;11.636;2022-09-09T04:21:51;2.10;;;2.00;;
9424;SDS011;17139;52.140;11.636;2022-09-09T04:24:18;2.13;;;1.80;;
9424;SDS011;17139;52.140;11.636;2022-09-09T04:26:48;3.13;;;2.58;;
9424;SDS011;17139;52.140;11.636;2022-09-09T04:29:15;2.45;;;2.33;;
9424;SDS011;17139;52.140;11.636;2022-09-09T04:31:43;3.47;;;3.17;;
9424;SDS011;17139;52.140;11.636;2022-09-09T04:34:10;2.28;;;2.03;;
9424;SDS011;17139;52.140;11.636;2022-09-09T04:36:37;3.05;;;2.67;;
9424;SDS011;17139;52.140;11.636;2022-09-09T04:39:05;2.17;;;2.05;;
9424;SDS011;17139;52.140;11.636;2022-09-09T04:41:32;2.63;;;2.15;;
9424;SDS011;17139;52.140;11.636;2022-09-09T04:44:01;7.15;;;3.65;;
9424;SDS011;17139;52.140;11.636;2022-09-09T04:46:28;3.00;;;2.80;;
9424;SDS011;17139;52.140;11.636;2022-09-09T04:48:55;2.60;;;2.40;;
9424;SDS011;17139;52.140;11.636;2022-09-09T04:51:22;2.90;;;2.70;;
9424;SDS011;17139;52.140;11.636;2022-09-09T04:53:49;5.20;;;2.85;;
9424;SDS011;17139;52.140;11.636;2022-09-09T04:56:19;5.30;;;2.28;;
9424;SDS011;17139;52.140;11.636;2022-09-09T04:58:46;4.57;;;2.83;;
9424;SDS011;17139;52.140;11.636;2022-09-09T05:01:15;3.65;;;2.35;;
9424;SDS011;17139;52.140;11.636;2022-09-09T05:03:43;7.75;;;3.15;;
9424;SDS011;17139;52.140;11.636;2022-09-09T05:06:12;3.55;;;2.95;;
9424;SDS011;17139;52.140;11.636;2022-09-09T05:08:41;7.45;;;3.10;;
9424;SDS011;17139;52.140;11.636;2022-09-09T05:11:15;2.85;;;2.75;;
9424;SDS011;17139;52.140;11.636;2022-09-09T05:13:43;3.10;;;2.80;;
9424;SDS011;17139;52.140;11.636;2022-09-09T05:16:10;4.18;;;3.78;;
9424;SDS011;17139;52.140;11.636;2022-09-09T05:18:39;3.53;;;3.30;;
9424;SDS011;17139;52.140;11.636;2022-09-09T05:21:07;3.88;;;3.60;;
9424;SDS011;17139;52.140;11.636;2022-09-09T05:23:35;3.58;;;2.90;;
9424;SDS011;17139;52.140;11.636;2022-09-09T05:26:02;2.45;;;2.35;;
9424;SDS011;17139;52.140;11.636;2022-09-09T05:28:30;5.20;;;3.03;;
9424;SDS011;17139;52.140;11.636;2022-09-09T05:31:00;3.70;;;3.28;;
9424;SDS011;17139;52.140;11.636;2022-09-09T05:33:29;5.07;;;2.38;;
9424;SDS011;17139;52.140;11.636;2022-09-09T05:36:00;2.50;;;2.30;;
9424;SDS011;17139;52.140;11.636;2022-09-09T05:38:28;2.45;;;2.30;;
9424;SDS011;17139;52.140;11.636;2022-09-09T05:40:55;2.28;;;2.05;;
9424;SDS011;17139;52.140;11.636;2022-09-09T05:43:22;5.10;;;2.83;;
9424;SDS011;17139;52.140;11.636;2022-09-09T05:45:58;2.78;;;2.10;;
9424;SDS011;17139;52.140;11.636;2022-09-09T05:48:27;4.15;;;2.38;;
9424;SDS011;17139;52.140;11.636;2022-09-09T05:50:55;2.30;;;2.10;;
9424;SDS011;17139;52.140;11.636;2022-09-09T05:53:24;2.42;;;2.33;;
9424;SDS011;17139;52.140;11.636;2022-09-09T05:55:57;5.13;;;2.10;;
9424;SDS011;17139;52.140;11.636;2022-09-09T05:58:25;1.95;;;1.80;;
9424;SDS011;17139;52.140;11.636;2022-09-09T06:00:52;2.50;;;2.30;;
9424;SDS011;17139;52.140;11.636;2022-09-09T06:03:26;3.53;;;1.90;;
9424;SDS011;17139;52.140;11.636;2022-09-09T06:05:56;2.10;;;1.88;;
9424;SDS011;17139;52.140;11.636;2022-09-09T06:08:25;2.03;;;1.92;;
9424;SDS011;17139;52.140;11.636;2022-09-09T06:10:53;1.95;;;1.85;;
9424;SDS011;17139;52.140;11.636;2022-09-09T06:13:21;2.47;;;2.28;;
9424;SDS011;17139;52.140;11.636;2022-09-09T06:15:49;3.55;;;2.03;;
9424;SDS011;17139;52.140;11.636;2022-09-09T06:18:17;2.10;;;2.00;;
9424;SDS011;17139;52.140;11.636;2022-09-09T06:20:52;2.53;;;2.35;;
9424;SDS011;17139;52.140;11.636;2022-09-09T06:23:20;5.20;;;2.88;;
9424;SDS011;17139;52.140;11.636;2022-09-09T06:25:49;2.20;;;1.98;;
9424;SDS011;17139;52.140;11.636;2022-09-09T06:28:16;3.45;;;2.50;;
9424;SDS011;17139;52.140;11.636;2022-09-09T06:30:44;2.15;;;2.03;;
9424;SDS011;17139;52.140;11.636;2022-09-09T06:33:10;1.90;;;1.80;;
9424;SDS011;17139;52.140;11.636;2022-09-09T06:35:37;4.40;;;2.42;;
9424;SDS011;17139;52.140;11.636;2022-09-09T06:38:04;2.22;;;1.98;;
9424;SDS011;17139;52.140;11.636;2022-09-09T06:40:33;2.90;;;2.20;;
9424;SDS011;17139;52.140;11.636;2022-09-09T06:43:01;1.95;;;1.85;;
9424;SDS011;17139;52.140;11.636;2022-09-09T06:45:28;3.28;;;2.13;;
9424;SDS011;17139;52.140;11.636;2022-09-09T06:47:56;2.80;;;2.60;;
9424;SDS011;17139;52.140;11.636;2022-09-09T06:50:23;2.38;;;2.20;;
9424;SDS011;17139;52.140;11.636;2022-09-09T06:52:50;2.95;;;2.75;;
9424;SDS011;17139;52.140;11.636;2022-09-09T06:55:17;6.97;;;2.30;;
9424;SDS011;17139;52.140;11.636;2022-09-09T06:57:45;2.28;;;2.17;;
9424;SDS011;17139;52.140;11.636;2022-09-09T07:00:15;3.78;;;2.15;;
9424;SDS011;17139;52.140;11.636;2022-09-09T07:02:42;2.38;;;2.28;;
9424;SDS011;17139;52.140;11.636;2022-09-09T07:05:09;2.13;;;2.03;;
9424;SDS011;17139;52.140;11.636;2022-09-09T07:07:36;2.80;;;2.45;;
9424;SDS011;17139;52.140;11.636;2022-09-09T07:10:04;6.53;;;2.42;;
9424;SDS011;17139;52.140;11.636;2022-09-09T07:12:32;3.30;;;2.30;;
9424;SDS011;17139;52.140;11.636;2022-09-09T07:14:59;2.75;;;2.65;;
9424;SDS011;17139;52.140;11.636;2022-09-09T07:17:28;2.47;;;2.30;;
9424;SDS011;17139;52.140;11.636;2022-09-09T07:19:55;2.25;;;2.15;;
9424;SDS011;17139;52.140;11.636;2022-09-09T07:22:22;2.58;;;2.47;;
9424;SDS011;17139;52.140;11.636;2022-09-09T07:24:50;3.20;;;2.58;;
9424;SDS011;17139;52.140;11.636;2022-09-09T07:27:17;2.22;;;2.13;;
9424;SDS011;17139;52.140;11.636;2022-09-09T07:29:44;2.47;;;2.38;;
9424;SDS011;17139;52.140;11.636;2022-09-09T07:32:11;3.35;;;2.35;;
9424;SDS011;17139;52.140;11.636;2022-09-09T07:34:39;2.28;;;2.10;;
9424;SDS011;17139;52.140;11.636;2022-09-09T07:37:06;3.72;;;2.00;;
9424;SDS011;17139;52.140;11.636;2022-09-09T07:39:39;2.60;;;2.10;;
9424;SDS011;17139;52.140;11.636;2022-09-09T07:42:07;1.80;;;1.70;;
9424;SDS011;17139;52.140;11.636;2022-09-09T07:44:34;2.80;;;2.42;;
9424;SDS011;17139;52.140;11.636;2022-09-09T07:47:02;1.90;;;1.70;;
9424;SDS011;17139;52.140;11.636;2022-09-09T07:49:29;2.15;;;1.95;;
9424;SDS011;17139;52.140;11.636;2022-09-09T07:51:58;1.90;;;1.67;;
9424;SDS011;17139;52.140;11.636;2022-09-09T07:54:25;4.65;;;1.90;;
9424;SDS011;17139;52.140;11.636;2022-09-09T07:56:52;1.85;;;1.73;;
9424;SDS011;17139;52.140;11.636;2022-09-09T07:59:19;3.65;;;2.00;;
9424;SDS011;17139;52.140;11.636;2022-09-09T08:01:47;4.18;;;1.90;;
9424;SDS011;17139;52.140;11.636;2022-09-09T08:04:19;2.13;;;2.03;;
9424;SDS011;17139;52.140;11.636;2022-09-09T08:06:49;2.20;;;1.58;;
9424;SDS011;17139;52.140;11.636;2022-09-09T08:09:19;2.67;;;1.83;;
9424;SDS011;17139;52.140;11.636;2022-09-09T08:11:47;4.43;;;1.30;;
9424;SDS011;17139;52.140;11.636;2022-09-09T08:14:14;9.48;;;1.88;;
9424;SDS011;17139;52.140;11.636;2022-09-09T08:16:42;2.13;;;1.75;;
9424;SDS011;17139;52.140;11.636;2022-09-09T08:19:11;1.65;;;1.55;;
9424;SDS011;17139;52.140;11.636;2022-09-09T08:21:40;1.73;;;1.63;;
9424;SDS011;17139;52.140;11.636;2022-09-09T08:24:08;1.88;;;1.73;;
9424;SDS011;17139;52.140;11.636;2022-09-09T08:26:38;2.80;;;1.50;;
9424;SDS011;17139;52.140;11.636;2022-09-09T08:29:07;3.00;;;1.80;;
9424;SDS011;17139;52.140;11.636;2022-09-09T08:31:36;2.00;;;1.20;;
9424;SDS011;17139;52.140;11.636;2022-09-09T08:34:04;1.58;;;1.48;;
9424;SDS011;17139;52.140;11.636;2022-09-09T08:36:34;2.38;;;2.05;;
9424;SDS011;17139;52.140;11.636;2022-09-09T08:39:02;1.58;;;1.45;;
9424;SDS011;17139;52.140;11.636;2022-09-09T08:41:32;2.83;;;1.50;;
9424;SDS011;17139;52.140;11.636;2022-09-09T08:44:22;3.85;;;1.40;;
9424;SDS011;17139;52.140;11.636;2022-09-09T08:46:57;2.15;;;1.35;;
9424;SDS011;17139;52.140;11.636;2022-09-09T08:49:40;1.85;;;1.10;;
9424;SDS011;17139;52.140;11.636;2022-09-09T08:52:16;2.80;;;1.40;;
9424;SDS011;17139;52.140;11.636;2022-09-09T08:54:45;1.73;;;1.40;;
9424;SDS011;17139;52.140;11.636;2022-09-09T08:57:17;3.90;;;1.67;;
9424;SDS011;17139;52.140;11.636;2022-09-09T08:59:47;4.05;;;1.92;;
9424;SDS011;17139;52.140;11.636;2022-09-09T09:02:17;4.33;;;1.40;;
9424;SDS011;17139;52.140;11.636;2022-09-09T09:04:54;0.85;;;0.85;;
9424;SDS011;17139;52.140;11.636;2022-09-09T09:07:31;2.08;;;1.20;;
9424;SDS011;17139;52.140;11.636;2022-09-09T09:10:10;1.30;;;1.20;;
9424;SDS011;17139;52.140;11.636;2022-09-09T09:12:43;1.42;;;1.33;;
9424;SDS011;17139;52.140;11.636;2022-09-09T09:15:14;2.13;;;1.20;;
9424;SDS011;17139;52.140;11.636;2022-09-09T09:17:46;1.17;;;1.08;;
9424;SDS011;17139;52.140;11.636;2022-09-09T09:20:14;1.65;;;1.10;;
9424;SDS011;17139;52.140;11.636;2022-09-09T09:22:47;1.17;;;1.17;;
9424;SDS011;17139;52.140;11.636;2022-09-09T09:25:16;2.10;;;1.48;;
9424;SDS011;17139;52.140;11.636;2022-09-09T09:27:49;1.13;;;1.10;;
9424;SDS011;17139;52.140;11.636;2022-09-09T09:30:31;2.95;;;1.50;;
9424;SDS011;17139;52.140;11.636;2022-09-09T09:33:04;2.92;;;0.98;;
9424;SDS011;17139;52.140;11.636;2022-09-09T09:35:35;1.55;;;1.25;;
9424;SDS011;17139;52.140;11.636;2022-09-09T09:38:05;5.32;;;1.33;;
9424;SDS011;17139;52.140;11.636;2022-09-09T09:40:47;1.30;;;1.02;;
9424;SDS011;17139;52.140;11.636;2022-09-09T09:43:20;1.17;;;1.08;;
9424;SDS011;17139;52.140;11.636;2022-09-09T09:45:51;3.50;;;1.30;;
9424;SDS011;17139;52.140;11.636;2022-09-09T09:48:18;2.28;;;1.17;;
9424;SDS011;17139;52.140;11.636;2022-09-09T09:50:48;1.23;;;1.13;;
9424;SDS011;17139;52.140;11.636;2022-09-09T09:53:22;1.95;;;1.55;;
9424;SDS011;17139;52.140;11.636;2022-09-09T09:55:56;5.43;;;1.20;;
9424;SDS011;17139;52.140;11.636;2022-09-09T09:58:27;1.30;;;1.20;;
9424;SDS011;17139;52.140;11.636;2022-09-09T10:00:59;0.80;;;0.80;;
9424;SDS011;17139;52.140;11.636;2022-09-09T10:03:27;2.05;;;1.33;;
9424;SDS011;17139;52.140;11.636;2022-09-09T10:05:55;2.83;;;1.20;;
9424;SDS011;17139;52.140;11.636;2022-09-09T10:08:24;3.47;;;0.85;;
9424;SDS011;17139;52.140;11.636;2022-09-09T10:11:02;2.40;;;1.45;;
9424;SDS011;17139;52.140;11.636;2022-09-09T10:13:55;1.15;;;0.70;;
9424;SDS011;17139;52.140;11.636;2022-09-09T10:16:35;2.75;;;0.90;;
9424;SDS011;17139;52.140;11.636;2022-09-09T10:19:13;1.02;;;1.00;;
9424;SDS011;17139;52.140;11.636;2022-09-09T10:21:57;1.20;;;1.10;;
9424;SDS011;17139;52.140;11.636;2022-09-09T10:24:37;1.05;;;1.00;;
9424;SDS011;17139;52.140;11.636;2022-09-09T10:27:20;2.25;;;1.30;;
9424;SDS011;17139;52.140;11.636;2022-09-09T10:30:02;1.38;;;1.10;;
9424;SDS011;17139;52.140;11.636;2022-09-09T10:32:37;2.03;;;1.13;;
9424;SDS011;17139;52.140;11.636;2022-09-09T10:35:12;1.52;;;0.85;;
9424;SDS011;17139;52.140;11.636;2022-09-09T10:37:51;0.70;;;0.70;;
9424;SDS011;17139;52.140;11.636;2022-09-09T10:40:31;1.23;;;1.08;;
9424;SDS011;17139;52.140;11.636;2022-09-09T10:43:02;2.00;;;1.20;;
9424;SDS011;17139;52.140;11.636;2022-09-09T10:45:40;2.67;;;1.17;;
9424;SDS011;17139;52.140;11.636;2022-09-09T10:48:22;0.75;;;0.75;;
9424;SDS011;17139;52.140;11.636;2022-09-09T10:51:09;1.17;;;1.00;;
9424;SDS011;17139;52.140;11.636;2022-09-09T10:53:49;1.27;;;0.95;;
9424;SDS011;17139;52.140;11.636;2022-09-09T10:56:33;1.88;;;1.08;;
9424;SDS011;17139;52.140;11.636;2022-09-09T10:59:04;1.30;;;1.20;;
9424;SDS011;17139;52.140;11.636;2022-09-09T11:01:39;1.88;;;1.10;;
9424;SDS011;17139;52.140;11.636;2022-09-09T11:04:13;2.45;;;1.00;;
9424;SDS011;17139;52.140;11.636;2022-09-09T11:06:46;2.60;;;1.00;;
9424;SDS011;17139;52.140;11.636;2022-09-09T11:09:18;1.75;;;1.27;;
9424;SDS011;17139;52.140;11.636;2022-09-09T11:11:49;3.90;;;1.20;;
9424;SDS011;17139;52.140;11.636;2022-09-09T11:14:19;1.30;;;1.20;;
9424;SDS011;17139;52.140;11.636;2022-09-09T11:16:57;1.40;;;1.23;;
9424;SDS011;17139;52.140;11.636;2022-09-09T11:19:28;3.38;;;1.20;;
9424;SDS011;17139;52.140;11.636;2022-09-09T11:22:00;1.75;;;1.65;;
9424;SDS011;17139;52.140;11.636;2022-09-09T11:24:32;1.25;;;1.15;;
9424;SDS011;17139;52.140;11.636;2022-09-09T11:27:06;1.58;;;1.48;;
9424;SDS011;17139;52.140;11.636;2022-09-09T11:30:01;1.83;;;0.93;;
9424;SDS011;17139;52.140;11.636;2022-09-09T11:32:47;1.90;;;1.40;;
9424;SDS011;17139;52.140;11.636;2022-09-09T11:35:45;2.05;;;1.10;;
9424;SDS011;17139;52.140;11.636;2022-09-09T11:38:23;3.90;;;1.17;;
9424;SDS011;17139;52.140;11.636;2022-09-09T11:40:59;0.80;;;0.80;;
9424;SDS011;17139;52.140;11.636;2022-09-09T11:43:30;1.75;;;1.17;;
9424;SDS011;17139;52.140;11.636;2022-09-09T11:46:00;0.98;;;0.98;;
9424;SDS011;17139;52.140;11.636;2022-09-09T11:48:31;1.52;;;1.10;;
9424;SDS011;17139;52.140;11.636;2022-09-09T11:51:00;1.00;;;0.85;;
9424;SDS011;17139;52.140;11.636;2022-09-09T11:53:30;2.33;;;1.40;;
9424;SDS011;17139;52.140;11.636;2022-09-09T11:58:54;1.17;;;1.00;;
9424;SDS011;17139;52.140;11.636;2022-09-09T12:01:33;0.90;;;0.90;;
9424;SDS011;17139;52.140;11.636;2022-09-09T12:04:09;2.00;;;1.30;;
9424;SDS011;17139;52.140;11.636;2022-09-09T12:06:44;0.77;;;0.77;;
9424;SDS011;17139;52.140;11.636;2022-09-09T12:09:17;1.52;;;1.42;;
9424;SDS011;17139;52.140;11.636;2022-09-09T12:11:48;1.40;;;1.02;;
9424;SDS011;17139;52.140;11.636;2022-09-09T12:14:22;1.58;;;1.00;;
9424;SDS011;17139;52.140;11.636;2022-09-09T12:17:09;1.30;;;0.90;;
9424;SDS011;17139;52.140;11.636;2022-09-09T12:19:45;1.30;;;0.98;;
9424;SDS011;17139;52.140;11.636;2022-09-09T12:22:15;1.55;;;1.00;;
9424;SDS011;17139;52.140;11.636;2022-09-09T12:24:49;1.10;;;1.10;;
9424;SDS011;17139;52.140;11.636;2022-09-09T12:27:23;3.05;;;1.35;;
9424;SDS011;17139;52.140;11.636;2022-09-09T12:29:55;1.35;;;1.20;;
9424;SDS011;17139;52.140;11.636;2022-09-09T12:32:28;1.10;;;0.93;;
9424;SDS011;17139;52.140;11.636;2022-09-09T12:34:57;3.33;;;1.27;;
9424;SDS011;17139;52.140;11.636;2022-09-09T12:37:27;0.90;;;0.90;;
9424;SDS011;17139;52.140;11.636;2022-09-09T12:40:00;1.15;;;0.80;;
9424;SDS011;17139;52.140;11.636;2022-09-09T12:42:28;2.80;;;1.23;;
9424;SDS011;17139;52.140;11.636;2022-09-09T12:44:58;2.55;;;1.02;;
9424;SDS011;17139;52.140;11.636;2022-09-09T12:47:33;1.13;;;1.13;;
9424;SDS011;17139;52.140;11.636;2022-09-09T12:50:16;5.13;;;2.70;;
9424;SDS011;17139;52.140;11.636;2022-09-09T12:52:47;1.48;;;1.33;;
9424;SDS011;17139;52.140;11.636;2022-09-09T12:55:18;1.10;;;1.05;;
9424;SDS011;17139;52.140;11.636;2022-09-09T12:57:50;0.90;;;0.90;;
9424;SDS011;17139;52.140;11.636;2022-09-09T13:00:19;1.15;;;0.98;;
9424;SDS011;17139;52.140;11.636;2022-09-09T13:02:49;1.97;;;1.10;;
9424;SDS011;17139;52.140;11.636;2022-09-09T13:05:20;0.93;;;0.93;;
9424;SDS011;17139;52.140;11.636;2022-09-09T13:07:49;2.10;;;1.10;;
9424;SDS011;17139;52.140;11.636;2022-09-09T13:10:19;3.53;;;0.90;;
9424;SDS011;17139;52.140;11.636;2022-09-09T13:12:51;1.10;;;1.00;;
9424;SDS011;17139;52.140;11.636;2022-09-09T13:15:20;4.30;;;0.82;;
9424;SDS011;17139;52.140;11.636;2022-09-09T13:17:55;1.65;;;0.90;;
9424;SDS011;17139;52.140;11.636;2022-09-09T13:20:27;2.42;;;1.08;;
9424;SDS011;17139;52.140;11.636;2022-09-09T13:22:56;1.27;;;0.93;;
9424;SDS011;17139;52.140;11.636;2022-09-09T13:25:24;0.73;;;0.73;;
9424;SDS011;17139;52.140;11.636;2022-09-09T13:27:54;1.77;;;1.30;;
9424;SDS011;17139;52.140;11.636;2022-09-09T13:30:23;0.70;;;0.70;;
9424;SDS011;17139;52.140;11.636;2022-09-09T13:33:03;0.95;;;0.93;;
9424;SDS011;17139;52.140;11.636;2022-09-09T13:35:49;1.58;;;0.88;;
9424;SDS011;17139;52.140;11.636;2022-09-09T13:38:18;0.93;;;0.93;;
9424;SDS011;17139;52.140;11.636;2022-09-09T13:40:53;1.27;;;0.88;;
9424;SDS011;17139;52.140;11.636;2022-09-09T13:43:24;2.47;;;1.10;;
9424;SDS011;17139;52.140;11.636;2022-09-09T13:45:53;4.18;;;1.17;;
9424;SDS011;17139;52.140;11.636;2022-09-09T13:48:21;2.67;;;0.73;;
9424;SDS011;17139;52.140;11.636;2022-09-09T13:50:54;4.20;;;1.00;;
9424;SDS011;17139;52.140;11.636;2022-09-09T13:53:23;2.00;;;1.40;;
9424;SDS011;17139;52.140;11.636;2022-09-09T13:55:50;4.32;;;1.00;;
9424;SDS011;17139;52.140;11.636;2022-09-09T13:58:18;4.15;;;1.50;;
9424;SDS011;17139;52.140;11.636;2022-09-09T14:00:46;1.95;;;1.60;;
9424;SDS011;17139;52.140;11.636;2022-09-09T14:03:14;3.10;;;1.33;;
9424;SDS011;17139;52.140;11.636;2022-09-09T14:05:45;2.13;;;1.58;;
9424;SDS011;17139;52.140;11.636;2022-09-09T14:11:02;5.78;;;2.53;;
9424;SDS011;17139;52.140;11.636;2022-09-09T14:13:29;3.50;;;1.20;;
9424;SDS011;17139;52.140;11.636;2022-09-09T14:15:56;1.60;;;1.50;;
9424;SDS011;17139;52.140;11.636;2022-09-09T14:18:24;4.23;;;1.50;;
9424;SDS011;17139;52.140;11.636;2022-09-09T14:20:51;4.03;;;0.95;;
9424;SDS011;17139;52.140;11.636;2022-09-09T14:23:19;1.48;;;1.10;;
9424;SDS011;17139;52.140;11.636;2022-09-09T14:25:49;1.20;;;1.10;;
9424;SDS011;17139;52.140;11.636;2022-09-09T14:28:17;1.08;;;1.08;;
9424;SDS011;17139;52.140;11.636;2022-09-09T14:30:44;1.50;;;1.02;;
9424;SDS011;17139;52.140;11.636;2022-09-09T14:33:12;3.08;;;1.27;;
9424;SDS011;17139;52.140;11.636;2022-09-09T14:35:40;1.65;;;1.25;;
9424;SDS011;17139;52.140;11.636;2022-09-09T14:38:07;2.67;;;1.20;;
9424;SDS011;17139;52.140;11.636;2022-09-09T14:40:35;3.72;;;1.13;;
9424;SDS011;17139;52.140;11.636;2022-09-09T14:43:04;5.13;;;1.10;;
9424;SDS011;17139;52.140;11.636;2022-09-09T14:45:32;3.55;;;0.88;;
9424;SDS011;17139;52.140;11.636;2022-09-09T14:47:59;0.90;;;0.90;;
9424;SDS011;17139;52.140;11.636;2022-09-09T14:50:26;1.33;;;1.23;;
9424;SDS011;17139;52.140;11.636;2022-09-09T14:52:53;1.33;;;1.15;;
9424;SDS011;17139;52.140;11.636;2022-09-09T14:55:20;2.13;;;1.20;;
9424;SDS011;17139;52.140;11.636;2022-09-09T14:57:47;1.25;;;1.15;;
9424;SDS011;17139;52.140;11.636;2022-09-09T15:00:16;2.85;;;1.20;;
9424;SDS011;17139;52.140;11.636;2022-09-09T15:02:43;0.80;;;0.80;;
9424;SDS011;17139;52.140;11.636;2022-09-09T15:05:11;1.27;;;1.27;;
9424;SDS011;17139;52.140;11.636;2022-09-09T15:07:40;2.40;;;1.00;;
9424;SDS011;17139;52.140;11.636;2022-09-09T15:10:07;1.10;;;1.00;;
9424;SDS011;17139;52.140;11.636;2022-09-09T15:12:36;1.48;;;1.20;;
9424;SDS011;17139;52.140;11.636;2022-09-09T15:15:04;2.40;;;2.30;;
9424;SDS011;17139;52.140;11.636;2022-09-09T15:17:39;2.23;;;2.13;;
9424;SDS011;17139;52.140;11.636;2022-09-09T15:20:06;1.63;;;1.50;;
9424;SDS011;17139;52.140;11.636;2022-09-09T15:22:34;0.95;;;0.90;;